sensor_id;sensor_type;location;lat;lon;timestamp;temperature;humidity
64796;DHT22;51229;51.980;6.722;2023-05-14T00:01:57;15.60;99.90
64796;DHT22;51229;51.980;6.722;2023-05-14T00:04:23;15.50;99.90
64796;DHT22;51229;51.980;6.722;2023-05-14T00:06:48;15.50;99.90
64796;DHT22;51229;51.980;6.722;2023-05-14T00:09:14;15.50;99.90
64796;DHT22;51229;51.980;6.722;2023-05-14T00:11:40;15.40;99.90
64796;DHT22;51229;51.980;6.722;2023-05-14T00:14:06;15.40;99.90
64796;DHT22;51229;51.980;6.722;2023-05-14T00:16:31;15.40;99.90
64796;DHT22;51229;51.980;6.722;2023-05-14T00:18:57;15.30;99.90
64796;DHT22;51229;51.980;6.722;2023-05-14T00:21:23;15.30;99.90
64796;DHT22;51229;51.980;6.722;2023-05-14T00:23:48;15.20;99.90
64796;DHT22;51229;51.980;6.722;2023-05-14T00:26:14;15.20;99.90
64796;DHT22;51229;51.980;6.722;2023-05-14T00:28:42;15.10;99.90
64796;DHT22;51229;51.980;6.722;2023-05-14T00:31:08;15.10;99.90
64796;DHT22;51229;51.980;6.722;2023-05-14T00:33:34;15.00;99.90
64796;DHT22;51229;51.980;6.722;2023-05-14T00:36:00;15.00;99.90
64796;DHT22;51229;51.980;6.722;2023-05-14T00:38:25;15.00;99.90
64796;DHT22;51229;51.980;6.722;2023-05-14T00:40:53;15.00;99.90
64796;DHT22;51229;51.980;6.722;2023-05-14T00:43:19;14.90;99.90
64796;DHT22;51229;51.980;6.722;2023-05-14T00:45:46;14.90;99.90
64796;DHT22;51229;51.980;6.722;2023-05-14T00:48:12;14.80;99.90
64796;DHT22;51229;51.980;6.722;2023-05-14T00:50:38;14.90;99.90
64796;DHT22;51229;51.980;6.722;2023-05-14T00:53:04;14.80;99.90
64796;DHT22;51229;51.980;6.722;2023-05-14T00:55:36;14.80;99.90
64796;DHT22;51229;51.980;6.722;2023-05-14T00:58:06;14.70;99.90
64796;DHT22;51229;51.980;6.722;2023-05-14T01:00:32;14.60;99.90
64796;DHT22;51229;51.980;6.722;2023-05-14T01:02:58;14.60;99.90
64796;DHT22;51229;51.980;6.722;2023-05-14T01:05:34;14.60;99.90
64796;DHT22;51229;51.980;6.722;2023-05-14T01:08:17;14.60;99.90
64796;DHT22;51229;51.980;6.722;2023-05-14T01:10:51;14.50;99.90
64796;DHT22;51229;51.980;6.722;2023-05-14T01:13:28;14.40;99.90
64796;DHT22;51229;51.980;6.722;2023-05-14T01:15:58;14.50;99.90
64796;DHT22;51229;51.980;6.722;2023-05-14T01:18:26;14.40;99.90
64796;DHT22;51229;51.980;6.722;2023-05-14T01:20:53;14.40;99.90
64796;DHT22;51229;51.980;6.722;2023-05-14T01:23:19;14.30;99.90
64796;DHT22;51229;51.980;6.722;2023-05-14T01:25:44;14.30;99.90
64796;DHT22;51229;51.980;6.722;2023-05-14T01:28:18;14.20;99.90
64796;DHT22;51229;51.980;6.722;2023-05-14T01:33:21;14.20;99.90
64796;DHT22;51229;51.980;6.722;2023-05-14T01:35:49;14.10;99.90
64796;DHT22;51229;51.980;6.722;2023-05-14T01:38:19;14.10;99.90
64796;DHT22;51229;51.980;6.722;2023-05-14T01:40:46;14.10;99.90
64796;DHT22;51229;51.980;6.722;2023-05-14T01:43:13;14.00;99.90
64796;DHT22;51229;51.980;6.722;2023-05-14T01:45:40;14.10;99.90
64796;DHT22;51229;51.980;6.722;2023-05-14T01:48:06;14.00;99.90
64796;DHT22;51229;51.980;6.722;2023-05-14T01:50:32;13.90;99.90
64796;DHT22;51229;51.980;6.722;2023-05-14T01:52:58;13.90;99.90
64796;DHT22;51229;51.980;6.722;2023-05-14T01:55:24;13.90;99.90
64796;DHT22;51229;51.980;6.722;2023-05-14T01:57:51;13.80;99.90
64796;DHT22;51229;51.980;6.722;2023-05-14T02:00:17;13.90;99.90
64796;DHT22;51229;51.980;6.722;2023-05-14T02:02:43;13.80;99.90
64796;DHT22;51229;51.980;6.722;2023-05-14T02:05:11;13.70;99.90
64796;DHT22;51229;51.980;6.722;2023-05-14T02:07:37;13.70;99.90
64796;DHT22;51229;51.980;6.722;2023-05-14T02:10:03;13.70;99.90
64796;DHT22;51229;51.980;6.722;2023-05-14T02:12:29;13.60;99.90
64796;DHT22;51229;51.980;6.722;2023-05-14T02:14:55;13.60;99.90
64796;DHT22;51229;51.980;6.722;2023-05-14T02:17:20;13.50;99.90
64796;DHT22;51229;51.980;6.722;2023-05-14T02:19:46;13.50;99.90
64796;DHT22;51229;51.980;6.722;2023-05-14T02:22:12;13.50;99.90
64796;DHT22;51229;51.980;6.722;2023-05-14T02:24:38;13.50;99.90
64796;DHT22;51229;51.980;6.722;2023-05-14T02:27:04;13.40;99.90
64796;DHT22;51229;51.980;6.722;2023-05-14T02:29:30;13.40;99.90
64796;DHT22;51229;51.980;6.722;2023-05-14T02:31:55;13.40;99.90
64796;DHT22;51229;51.980;6.722;2023-05-14T02:34:21;13.30;99.90
64796;DHT22;51229;51.980;6.722;2023-05-14T02:36:47;13.30;99.90
64796;DHT22;51229;51.980;6.722;2023-05-14T02:39:13;13.20;99.90
64796;DHT22;51229;51.980;6.722;2023-05-14T02:41:38;13.20;99.90
64796;DHT22;51229;51.980;6.722;2023-05-14T02:44:04;13.20;99.90
64796;DHT22;51229;51.980;6.722;2023-05-14T02:46:31;13.10;99.90
64796;DHT22;51229;51.980;6.722;2023-05-14T02:48:57;13.10;99.90
64796;DHT22;51229;51.980;6.722;2023-05-14T02:51:23;13.10;99.90
64796;DHT22;51229;51.980;6.722;2023-05-14T02:53:49;13.10;99.90
64796;DHT22;51229;51.980;6.722;2023-05-14T02:56:14;13.00;99.90
64796;DHT22;51229;51.980;6.722;2023-05-14T02:58:41;13.00;99.90
64796;DHT22;51229;51.980;6.722;2023-05-14T03:01:07;12.90;99.90
64796;DHT22;51229;51.980;6.722;2023-05-14T03:03:33;12.90;99.90
64796;DHT22;51229;51.980;6.722;2023-05-14T03:05:59;12.70;99.90
64796;DHT22;51229;51.980;6.722;2023-05-14T03:08:24;12.70;99.90
64796;DHT22;51229;51.980;6.722;2023-05-14T03:10:50;12.70;99.90
64796;DHT22;51229;51.980;6.722;2023-05-14T03:13:16;12.70;99.90
64796;DHT22;51229;51.980;6.722;2023-05-14T03:15:44;12.70;99.90
64796;DHT22;51229;51.980;6.722;2023-05-14T03:18:11;12.70;99.90
64796;DHT22;51229;51.980;6.722;2023-05-14T03:20:38;12.70;99.90
64796;DHT22;51229;51.980;6.722;2023-05-14T03:23:04;12.60;99.90
64796;DHT22;51229;51.980;6.722;2023-05-14T03:25:30;12.60;99.90
64796;DHT22;51229;51.980;6.722;2023-05-14T03:27:57;12.60;99.90
64796;DHT22;51229;51.980;6.722;2023-05-14T03:30:22;12.60;99.90
64796;DHT22;51229;51.980;6.722;2023-05-14T03:32:49;12.60;99.90
64796;DHT22;51229;51.980;6.722;2023-05-14T03:35:15;12.50;99.90
64796;DHT22;51229;51.980;6.722;2023-05-14T03:37:40;12.50;99.90
64796;DHT22;51229;51.980;6.722;2023-05-14T03:40:06;12.50;99.90
64796;DHT22;51229;51.980;6.722;2023-05-14T03:42:35;12.50;99.90
64796;DHT22;51229;51.980;6.722;2023-05-14T03:45:01;12.50;99.90
64796;DHT22;51229;51.980;6.722;2023-05-14T03:47:27;12.50;99.90
64796;DHT22;51229;51.980;6.722;2023-05-14T03:49:53;12.40;99.90
64796;DHT22;51229;51.980;6.722;2023-05-14T03:52:19;12.40;99.90
64796;DHT22;51229;51.980;6.722;2023-05-14T03:54:45;12.40;99.90
64796;DHT22;51229;51.980;6.722;2023-05-14T03:57:10;12.30;99.90
64796;DHT22;51229;51.980;6.722;2023-05-14T03:59:36;12.30;99.90
64796;DHT22;51229;51.980;6.722;2023-05-14T04:02:02;12.30;99.90
64796;DHT22;51229;51.980;6.722;2023-05-14T04:04:27;12.30;99.90
64796;DHT22;51229;51.980;6.722;2023-05-14T04:06:53;12.20;99.90
64796;DHT22;51229;51.980;6.722;2023-05-14T04:09:19;12.20;99.90
64796;DHT22;51229;51.980;6.722;2023-05-14T04:11:45;12.20;99.90
64796;DHT22;51229;51.980;6.722;2023-05-14T04:14:11;12.10;99.90
64796;DHT22;51229;51.980;6.722;2023-05-14T04:16:37;12.20;99.90
64796;DHT22;51229;51.980;6.722;2023-05-14T04:19:03;12.10;99.90
64796;DHT22;51229;51.980;6.722;2023-05-14T04:21:30;12.10;99.90
64796;DHT22;51229;51.980;6.722;2023-05-14T04:23:56;12.00;99.90
64796;DHT22;51229;51.980;6.722;2023-05-14T04:26:22;12.00;99.90
64796;DHT22;51229;51.980;6.722;2023-05-14T04:28:47;12.00;99.90
64796;DHT22;51229;51.980;6.722;2023-05-14T04:31:14;12.00;99.90
64796;DHT22;51229;51.980;6.722;2023-05-14T04:33:39;12.10;99.90
64796;DHT22;51229;51.980;6.722;2023-05-14T04:36:05;12.10;99.90
64796;DHT22;51229;51.980;6.722;2023-05-14T04:38:32;12.00;99.90
64796;DHT22;51229;51.980;6.722;2023-05-14T04:40:58;12.10;99.90
64796;DHT22;51229;51.980;6.722;2023-05-14T04:43:24;12.10;99.90
64796;DHT22;51229;51.980;6.722;2023-05-14T04:45:51;12.10;99.90
64796;DHT22;51229;51.980;6.722;2023-05-14T04:48:17;12.10;99.90
64796;DHT22;51229;51.980;6.722;2023-05-14T04:50:42;12.10;99.90
64796;DHT22;51229;51.980;6.722;2023-05-14T04:53:09;12.10;99.90
64796;DHT22;51229;51.980;6.722;2023-05-14T04:55:35;12.10;99.90
64796;DHT22;51229;51.980;6.722;2023-05-14T04:58:00;12.10;99.90
64796;DHT22;51229;51.980;6.722;2023-05-14T05:00:27;12.00;99.90
64796;DHT22;51229;51.980;6.722;2023-05-14T05:02:53;12.10;99.90
64796;DHT22;51229;51.980;6.722;2023-05-14T05:05:19;12.10;99.90
64796;DHT22;51229;51.980;6.722;2023-05-14T05:07:45;12.20;99.90
64796;DHT22;51229;51.980;6.722;2023-05-14T05:10:10;12.30;99.90
64796;DHT22;51229;51.980;6.722;2023-05-14T05:12:36;12.30;99.90
64796;DHT22;51229;51.980;6.722;2023-05-14T05:15:02;12.30;99.90
64796;DHT22;51229;51.980;6.722;2023-05-14T05:17:29;12.30;99.90
64796;DHT22;51229;51.980;6.722;2023-05-14T05:19:55;12.30;99.90
64796;DHT22;51229;51.980;6.722;2023-05-14T05:22:20;12.30;99.90
64796;DHT22;51229;51.980;6.722;2023-05-14T05:24:46;12.30;99.90
64796;DHT22;51229;51.980;6.722;2023-05-14T05:27:12;12.40;99.90
64796;DHT22;51229;51.980;6.722;2023-05-14T05:29:37;12.30;99.90
64796;DHT22;51229;51.980;6.722;2023-05-14T05:32:03;12.10;99.90
64796;DHT22;51229;51.980;6.722;2023-05-14T05:34:29;12.10;99.90
64796;DHT22;51229;51.980;6.722;2023-05-14T05:36:55;12.40;99.90
64796;DHT22;51229;51.980;6.722;2023-05-14T05:39:21;12.50;99.90
64796;DHT22;51229;51.980;6.722;2023-05-14T05:41:46;12.40;99.90
64796;DHT22;51229;51.980;6.722;2023-05-14T05:44:12;12.40;99.90
64796;DHT22;51229;51.980;6.722;2023-05-14T05:46:38;12.50;99.90
64796;DHT22;51229;51.980;6.722;2023-05-14T05:49:03;12.60;99.90
64796;DHT22;51229;51.980;6.722;2023-05-14T05:51:29;12.60;99.90
64796;DHT22;51229;51.980;6.722;2023-05-14T05:53:54;12.70;99.90
64796;DHT22;51229;51.980;6.722;2023-05-14T05:56:20;12.70;99.90
64796;DHT22;51229;51.980;6.722;2023-05-14T05:58:46;12.70;99.90
64796;DHT22;51229;51.980;6.722;2023-05-14T06:01:12;12.30;99.90
64796;DHT22;51229;51.980;6.722;2023-05-14T06:03:38;12.40;99.90
64796;DHT22;51229;51.980;6.722;2023-05-14T06:06:03;12.00;99.90
64796;DHT22;51229;51.980;6.722;2023-05-14T06:08:29;12.20;99.90
64796;DHT22;51229;51.980;6.722;2023-05-14T06:10:55;12.60;99.90
64796;DHT22;51229;51.980;6.722;2023-05-14T06:13:20;12.70;99.90
64796;DHT22;51229;51.980;6.722;2023-05-14T06:15:46;12.70;99.90
64796;DHT22;51229;51.980;6.722;2023-05-14T06:18:11;12.70;99.90
64796;DHT22;51229;51.980;6.722;2023-05-14T06:20:37;12.70;99.90
64796;DHT22;51229;51.980;6.722;2023-05-14T06:23:03;12.80;99.90
64796;DHT22;51229;51.980;6.722;2023-05-14T06:25:28;12.70;99.90
64796;DHT22;51229;51.980;6.722;2023-05-14T06:27:54;12.30;99.90
64796;DHT22;51229;51.980;6.722;2023-05-14T06:30:20;11.90;99.90
64796;DHT22;51229;51.980;6.722;2023-05-14T06:32:45;12.20;99.90
64796;DHT22;51229;51.980;6.722;2023-05-14T06:35:11;12.60;99.90
64796;DHT22;51229;51.980;6.722;2023-05-14T06:37:37;12.90;99.90
64796;DHT22;51229;51.980;6.722;2023-05-14T06:40:03;13.10;99.90
64796;DHT22;51229;51.980;6.722;2023-05-14T06:42:29;13.20;99.90
64796;DHT22;51229;51.980;6.722;2023-05-14T06:44:57;13.30;99.90
64796;DHT22;51229;51.980;6.722;2023-05-14T06:47:22;13.40;99.90
64796;DHT22;51229;51.980;6.722;2023-05-14T06:49:48;13.20;99.90
64796;DHT22;51229;51.980;6.722;2023-05-14T06:52:14;13.20;99.90
64796;DHT22;51229;51.980;6.722;2023-05-14T06:54:39;13.40;99.90
64796;DHT22;51229;51.980;6.722;2023-05-14T06:57:05;13.60;99.90
64796;DHT22;51229;51.980;6.722;2023-05-14T06:59:31;13.70;99.90
64796;DHT22;51229;51.980;6.722;2023-05-14T07:01:57;13.80;99.90
64796;DHT22;51229;51.980;6.722;2023-05-14T07:04:23;14.00;99.90
64796;DHT22;51229;51.980;6.722;2023-05-14T07:06:49;13.90;99.90
64796;DHT22;51229;51.980;6.722;2023-05-14T07:09:15;13.80;99.90
64796;DHT22;51229;51.980;6.722;2023-05-14T07:11:41;13.80;99.90
64796;DHT22;51229;51.980;6.722;2023-05-14T07:14:07;13.80;99.90
64796;DHT22;51229;51.980;6.722;2023-05-14T07:16:32;14.10;99.90
64796;DHT22;51229;51.980;6.722;2023-05-14T07:18:58;14.20;99.90
64796;DHT22;51229;51.980;6.722;2023-05-14T07:21:24;14.20;99.90
64796;DHT22;51229;51.980;6.722;2023-05-14T07:23:50;14.20;99.90
64796;DHT22;51229;51.980;6.722;2023-05-14T07:26:16;14.20;99.90
64796;DHT22;51229;51.980;6.722;2023-05-14T07:28:41;14.30;99.90
64796;DHT22;51229;51.980;6.722;2023-05-14T07:31:07;14.40;99.90
64796;DHT22;51229;51.980;6.722;2023-05-14T07:33:37;15.30;99.90
64796;DHT22;51229;51.980;6.722;2023-05-14T07:36:03;15.40;99.90
64796;DHT22;51229;51.980;6.722;2023-05-14T07:38:30;15.20;99.90
64796;DHT22;51229;51.980;6.722;2023-05-14T07:40:56;15.10;99.90
64796;DHT22;51229;51.980;6.722;2023-05-14T07:43:21;15.10;99.90
64796;DHT22;51229;51.980;6.722;2023-05-14T07:45:47;15.00;99.90
64796;DHT22;51229;51.980;6.722;2023-05-14T07:48:13;15.20;99.90
64796;DHT22;51229;51.980;6.722;2023-05-14T07:50:38;15.70;99.90
64796;DHT22;51229;51.980;6.722;2023-05-14T07:53:04;16.10;99.90
64796;DHT22;51229;51.980;6.722;2023-05-14T07:55:30;16.80;99.90
64796;DHT22;51229;51.980;6.722;2023-05-14T07:57:55;16.60;99.90
64796;DHT22;51229;51.980;6.722;2023-05-14T08:00:21;16.30;99.90
64796;DHT22;51229;51.980;6.722;2023-05-14T08:02:47;16.20;99.90
64796;DHT22;51229;51.980;6.722;2023-05-14T08:05:13;17.00;99.90
64796;DHT22;51229;51.980;6.722;2023-05-14T08:07:39;17.10;99.90
64796;DHT22;51229;51.980;6.722;2023-05-14T08:10:06;16.80;99.90
64796;DHT22;51229;51.980;6.722;2023-05-14T08:12:32;16.70;99.90
64796;DHT22;51229;51.980;6.722;2023-05-14T08:14:58;16.60;99.90
64796;DHT22;51229;51.980;6.722;2023-05-14T08:17:23;16.70;99.90
64796;DHT22;51229;51.980;6.722;2023-05-14T08:19:49;17.40;99.90
64796;DHT22;51229;51.980;6.722;2023-05-14T08:22:15;17.60;99.90
64796;DHT22;51229;51.980;6.722;2023-05-14T08:24:40;17.80;99.90
64796;DHT22;51229;51.980;6.722;2023-05-14T08:27:08;17.60;99.90
64796;DHT22;51229;51.980;6.722;2023-05-14T08:29:34;17.90;99.90
64796;DHT22;51229;51.980;6.722;2023-05-14T08:31:59;18.30;99.90
64796;DHT22;51229;51.980;6.722;2023-05-14T08:34:25;19.00;99.90
64796;DHT22;51229;51.980;6.722;2023-05-14T08:36:50;19.40;99.90
64796;DHT22;51229;51.980;6.722;2023-05-14T08:39:16;18.70;99.90
64796;DHT22;51229;51.980;6.722;2023-05-14T08:41:42;19.10;99.90
64796;DHT22;51229;51.980;6.722;2023-05-14T08:44:18;19.50;99.90
64796;DHT22;51229;51.980;6.722;2023-05-14T08:46:44;19.80;99.90
64796;DHT22;51229;51.980;6.722;2023-05-14T08:51:43;20.30;99.50
64796;DHT22;51229;51.980;6.722;2023-05-14T08:54:14;20.70;96.90
64796;DHT22;51229;51.980;6.722;2023-05-14T08:56:43;20.70;95.80
64796;DHT22;51229;51.980;6.722;2023-05-14T08:59:09;19.40;95.80
64796;DHT22;51229;51.980;6.722;2023-05-14T09:01:36;19.20;99.00
64796;DHT22;51229;51.980;6.722;2023-05-14T09:04:04;19.90;97.20
64796;DHT22;51229;51.980;6.722;2023-05-14T09:06:35;20.30;99.90
64796;DHT22;51229;51.980;6.722;2023-05-14T09:09:04;21.00;98.50
64796;DHT22;51229;51.980;6.722;2023-05-14T09:11:30;21.50;95.70
64796;DHT22;51229;51.980;6.722;2023-05-14T09:13:56;21.60;92.80
64796;DHT22;51229;51.980;6.722;2023-05-14T09:16:22;21.70;97.10
64796;DHT22;51229;51.980;6.722;2023-05-14T09:18:50;21.50;97.80
64796;DHT22;51229;51.980;6.722;2023-05-14T09:21:17;20.70;97.30
64796;DHT22;51229;51.980;6.722;2023-05-14T09:23:43;21.40;94.40
64796;DHT22;51229;51.980;6.722;2023-05-14T09:26:16;21.90;95.60
64796;DHT22;51229;51.980;6.722;2023-05-14T09:28:43;22.50;97.20
64796;DHT22;51229;51.980;6.722;2023-05-14T09:31:09;21.80;96.00
64796;DHT22;51229;51.980;6.722;2023-05-14T09:33:35;21.60;97.20
64796;DHT22;51229;51.980;6.722;2023-05-14T09:36:01;21.90;99.10
64796;DHT22;51229;51.980;6.722;2023-05-14T09:38:31;22.10;98.60
64796;DHT22;51229;51.980;6.722;2023-05-14T09:40:58;22.30;99.90
64796;DHT22;51229;51.980;6.722;2023-05-14T09:43:24;22.80;99.10
64796;DHT22;51229;51.980;6.722;2023-05-14T09:45:51;22.80;99.10
64796;DHT22;51229;51.980;6.722;2023-05-14T09:48:16;23.20;99.30
64796;DHT22;51229;51.980;6.722;2023-05-14T09:50:43;23.50;99.10
64796;DHT22;51229;51.980;6.722;2023-05-14T09:53:09;23.70;98.40
64796;DHT22;51229;51.980;6.722;2023-05-14T09:55:36;23.70;98.30
64796;DHT22;51229;51.980;6.722;2023-05-14T09:58:01;24.00;94.00
64796;DHT22;51229;51.980;6.722;2023-05-14T10:00:30;23.60;85.60
64796;DHT22;51229;51.980;6.722;2023-05-14T10:02:57;23.60;86.50
64796;DHT22;51229;51.980;6.722;2023-05-14T10:05:23;22.60;84.40
64796;DHT22;51229;51.980;6.722;2023-05-14T10:07:50;23.70;90.40
64796;DHT22;51229;51.980;6.722;2023-05-14T10:10:20;24.50;95.70
64796;DHT22;51229;51.980;6.722;2023-05-14T10:12:52;25.10;92.30
64796;DHT22;51229;51.980;6.722;2023-05-14T10:15:46;25.10;82.20
64796;DHT22;51229;51.980;6.722;2023-05-14T10:18:11;25.20;93.20
64796;DHT22;51229;51.980;6.722;2023-05-14T10:20:39;26.00;91.80
64796;DHT22;51229;51.980;6.722;2023-05-14T10:23:06;25.60;92.80
64796;DHT22;51229;51.980;6.722;2023-05-14T10:25:33;25.40;93.60
64796;DHT22;51229;51.980;6.722;2023-05-14T10:28:00;25.80;92.30
64796;DHT22;51229;51.980;6.722;2023-05-14T10:30:26;25.60;78.20
64796;DHT22;51229;51.980;6.722;2023-05-14T10:33:24;25.30;91.00
64796;DHT22;51229;51.980;6.722;2023-05-14T10:35:55;26.20;91.90
64796;DHT22;51229;51.980;6.722;2023-05-14T10:38:33;26.60;72.40
64796;DHT22;51229;51.980;6.722;2023-05-14T10:43:26;26.50;87.10
64796;DHT22;51229;51.980;6.722;2023-05-14T10:45:59;26.50;90.70
64796;DHT22;51229;51.980;6.722;2023-05-14T10:48:25;26.50;90.70
64796;DHT22;51229;51.980;6.722;2023-05-14T10:50:51;26.70;91.40
64796;DHT22;51229;51.980;6.722;2023-05-14T10:53:17;26.90;89.30
64796;DHT22;51229;51.980;6.722;2023-05-14T10:55:44;27.20;90.70
64796;DHT22;51229;51.980;6.722;2023-05-14T10:58:10;26.90;91.60
64796;DHT22;51229;51.980;6.722;2023-05-14T11:00:37;27.00;91.90
64796;DHT22;51229;51.980;6.722;2023-05-14T11:03:05;26.60;91.60
64796;DHT22;51229;51.980;6.722;2023-05-14T11:05:31;25.80;92.60
64796;DHT22;51229;51.980;6.722;2023-05-14T11:07:58;25.90;93.10
64796;DHT22;51229;51.980;6.722;2023-05-14T11:10:26;26.90;91.70
64796;DHT22;51229;51.980;6.722;2023-05-14T11:12:56;27.40;91.90
64796;DHT22;51229;51.980;6.722;2023-05-14T11:15:24;27.20;66.40
64796;DHT22;51229;51.980;6.722;2023-05-14T11:17:51;26.70;85.30
64796;DHT22;51229;51.980;6.722;2023-05-14T11:20:19;27.70;81.80
64796;DHT22;51229;51.980;6.722;2023-05-14T11:22:46;27.40;83.50
64796;DHT22;51229;51.980;6.722;2023-05-14T11:25:13;27.10;79.00
64796;DHT22;51229;51.980;6.722;2023-05-14T11:27:40;26.40;88.10
64796;DHT22;51229;51.980;6.722;2023-05-14T11:30:16;26.30;91.10
64796;DHT22;51229;51.980;6.722;2023-05-14T11:32:47;26.30;91.00
64796;DHT22;51229;51.980;6.722;2023-05-14T11:35:14;25.90;91.30
64796;DHT22;51229;51.980;6.722;2023-05-14T11:37:40;25.10;73.90
64796;DHT22;51229;51.980;6.722;2023-05-14T11:40:14;25.30;89.30
64796;DHT22;51229;51.980;6.722;2023-05-14T11:42:41;25.70;73.50
64796;DHT22;51229;51.980;6.722;2023-05-14T11:45:10;25.70;68.90
64796;DHT22;51229;51.980;6.722;2023-05-14T11:47:36;26.20;61.40
64796;DHT22;51229;51.980;6.722;2023-05-14T11:50:02;25.40;72.20
64796;DHT22;51229;51.980;6.722;2023-05-14T11:52:28;25.40;82.30
64796;DHT22;51229;51.980;6.722;2023-05-14T11:54:53;26.00;88.10
64796;DHT22;51229;51.980;6.722;2023-05-14T11:57:20;26.20;89.70
64796;DHT22;51229;51.980;6.722;2023-05-14T11:59:54;26.10;90.60
64796;DHT22;51229;51.980;6.722;2023-05-14T12:02:26;25.40;64.00
64796;DHT22;51229;51.980;6.722;2023-05-14T12:04:53;25.80;86.00
64796;DHT22;51229;51.980;6.722;2023-05-14T12:07:19;26.90;85.30
64796;DHT22;51229;51.980;6.722;2023-05-14T12:09:46;27.20;70.60
64796;DHT22;51229;51.980;6.722;2023-05-14T12:12:20;26.30;60.00
64796;DHT22;51229;51.980;6.722;2023-05-14T12:14:47;25.40;72.50
64796;DHT22;51229;51.980;6.722;2023-05-14T12:17:18;25.80;82.70
64796;DHT22;51229;51.980;6.722;2023-05-14T12:19:49;24.90;63.00
64796;DHT22;51229;51.980;6.722;2023-05-14T12:22:22;24.60;53.50
64796;DHT22;51229;51.980;6.722;2023-05-14T12:24:58;25.00;81.80
64796;DHT22;51229;51.980;6.722;2023-05-14T12:27:25;26.50;75.60
64796;DHT22;51229;51.980;6.722;2023-05-14T12:29:58;27.40;76.50
64796;DHT22;51229;51.980;6.722;2023-05-14T12:32:25;26.00;61.80
64796;DHT22;51229;51.980;6.722;2023-05-14T12:34:50;25.70;72.00
64796;DHT22;51229;51.980;6.722;2023-05-14T12:37:16;24.70;78.90
64796;DHT22;51229;51.980;6.722;2023-05-14T12:39:43;25.10;80.20
64796;DHT22;51229;51.980;6.722;2023-05-14T12:42:08;24.90;71.80
64796;DHT22;51229;51.980;6.722;2023-05-14T12:44:34;24.10;78.80
64796;DHT22;51229;51.980;6.722;2023-05-14T12:47:00;24.00;63.50
64796;DHT22;51229;51.980;6.722;2023-05-14T12:49:26;24.50;77.90
64796;DHT22;51229;51.980;6.722;2023-05-14T12:51:52;25.10;66.80
64796;DHT22;51229;51.980;6.722;2023-05-14T12:54:17;25.60;75.80
64796;DHT22;51229;51.980;6.722;2023-05-14T12:56:43;25.80;78.50
64796;DHT22;51229;51.980;6.722;2023-05-14T12:59:08;26.10;57.60
64796;DHT22;51229;51.980;6.722;2023-05-14T13:01:35;26.00;72.70
64796;DHT22;51229;51.980;6.722;2023-05-14T13:04:03;26.40;71.70
64796;DHT22;51229;51.980;6.722;2023-05-14T13:06:29;26.30;76.80
64796;DHT22;51229;51.980;6.722;2023-05-14T13:08:56;26.10;73.30
64796;DHT22;51229;51.980;6.722;2023-05-14T13:11:24;26.10;63.00
64796;DHT22;51229;51.980;6.722;2023-05-14T13:13:51;25.60;71.20
64796;DHT22;51229;51.980;6.722;2023-05-14T13:19:20;27.00;75.60
64796;DHT22;51229;51.980;6.722;2023-05-14T13:21:46;27.40;75.90
64796;DHT22;51229;51.980;6.722;2023-05-14T13:24:11;25.20;53.30
64796;DHT22;51229;51.980;6.722;2023-05-14T13:26:37;25.80;80.50
64796;DHT22;51229;51.980;6.722;2023-05-14T13:29:03;26.20;56.40
64796;DHT22;51229;51.980;6.722;2023-05-14T13:31:54;25.90;79.70
64796;DHT22;51229;51.980;6.722;2023-05-14T13:34:20;26.30;79.40
64796;DHT22;51229;51.980;6.722;2023-05-14T13:36:46;26.40;80.00
64796;DHT22;51229;51.980;6.722;2023-05-14T13:39:13;26.90;79.90
64796;DHT22;51229;51.980;6.722;2023-05-14T13:41:39;27.00;80.30
64796;DHT22;51229;51.980;6.722;2023-05-14T13:44:06;27.10;81.00
64796;DHT22;51229;51.980;6.722;2023-05-14T13:46:31;26.80;80.20
64796;DHT22;51229;51.980;6.722;2023-05-14T13:48:57;26.60;81.40
64796;DHT22;51229;51.980;6.722;2023-05-14T13:51:22;26.80;81.70
64796;DHT22;51229;51.980;6.722;2023-05-14T13:53:48;26.80;81.30
64796;DHT22;51229;51.980;6.722;2023-05-14T13:56:14;26.70;82.30
64796;DHT22;51229;51.980;6.722;2023-05-14T13:58:40;26.50;75.40
64796;DHT22;51229;51.980;6.722;2023-05-14T14:01:05;26.00;83.60
64796;DHT22;51229;51.980;6.722;2023-05-14T14:03:32;26.10;83.80
64796;DHT22;51229;51.980;6.722;2023-05-14T14:05:57;26.00;84.20
64796;DHT22;51229;51.980;6.722;2023-05-14T14:08:23;25.90;84.50
64796;DHT22;51229;51.980;6.722;2023-05-14T14:10:49;25.90;85.00
64796;DHT22;51229;51.980;6.722;2023-05-14T14:13:15;25.90;85.20
64796;DHT22;51229;51.980;6.722;2023-05-14T14:15:40;26.00;85.40
64796;DHT22;51229;51.980;6.722;2023-05-14T14:18:06;26.00;85.10
64796;DHT22;51229;51.980;6.722;2023-05-14T14:20:32;26.00;85.20
64796;DHT22;51229;51.980;6.722;2023-05-14T14:22:58;26.00;84.00
64796;DHT22;51229;51.980;6.722;2023-05-14T14:25:24;25.70;84.30
64796;DHT22;51229;51.980;6.722;2023-05-14T14:27:49;25.70;84.70
64796;DHT22;51229;51.980;6.722;2023-05-14T14:30:15;25.60;86.10
64796;DHT22;51229;51.980;6.722;2023-05-14T14:35:08;25.60;85.80
64796;DHT22;51229;51.980;6.722;2023-05-14T14:37:33;25.70;85.90
64796;DHT22;51229;51.980;6.722;2023-05-14T14:39:59;25.60;86.00
64796;DHT22;51229;51.980;6.722;2023-05-14T14:42:25;25.50;86.60
64796;DHT22;51229;51.980;6.722;2023-05-14T14:44:50;25.50;87.30
64796;DHT22;51229;51.980;6.722;2023-05-14T14:47:16;25.50;87.50
64796;DHT22;51229;51.980;6.722;2023-05-14T14:49:42;25.60;87.20
64796;DHT22;51229;51.980;6.722;2023-05-14T14:52:07;25.50;87.60
64796;DHT22;51229;51.980;6.722;2023-05-14T14:54:33;25.30;87.60
64796;DHT22;51229;51.980;6.722;2023-05-14T14:56:58;25.40;87.70
64796;DHT22;51229;51.980;6.722;2023-05-14T14:59:24;25.40;87.40
64796;DHT22;51229;51.980;6.722;2023-05-14T15:01:50;25.30;87.50
64796;DHT22;51229;51.980;6.722;2023-05-14T15:04:16;25.20;86.90
64796;DHT22;51229;51.980;6.722;2023-05-14T15:06:41;24.90;88.10
64796;DHT22;51229;51.980;6.722;2023-05-14T15:09:07;24.90;88.40
64796;DHT22;51229;51.980;6.722;2023-05-14T15:11:33;25.00;88.70
64796;DHT22;51229;51.980;6.722;2023-05-14T15:13:59;25.10;88.00
64796;DHT22;51229;51.980;6.722;2023-05-14T15:16:24;25.00;88.60
64796;DHT22;51229;51.980;6.722;2023-05-14T15:18:50;25.00;89.20
64796;DHT22;51229;51.980;6.722;2023-05-14T15:21:16;25.00;88.40
64796;DHT22;51229;51.980;6.722;2023-05-14T15:23:41;24.80;88.80
64796;DHT22;51229;51.980;6.722;2023-05-14T15:26:07;24.80;88.70
64796;DHT22;51229;51.980;6.722;2023-05-14T15:28:33;24.90;89.10
64796;DHT22;51229;51.980;6.722;2023-05-14T15:30:58;24.90;88.50
64796;DHT22;51229;51.980;6.722;2023-05-14T15:33:24;24.70;88.80
64796;DHT22;51229;51.980;6.722;2023-05-14T15:35:50;24.70;89.10
64796;DHT22;51229;51.980;6.722;2023-05-14T15:38:16;24.70;90.30
64796;DHT22;51229;51.980;6.722;2023-05-14T15:40:41;24.60;88.90